Sedna Desgagnes — CYQE — position and weather

sailwx.info

Track history (hours):
 
Tides and Currents Weather Stations Pressure Air Temp Water Temp Dewpoint Dewpoint Depression Visibility Wind Speed Wind Dir Waves Ship Positions

Sedna Desgagnes

Last reported at 2017-Aug-12 08:25 UTC. Time now 2017-Aug-19 07:30 UTC.
Position N 51°11' W 057°13'.

Length 139 m; draft 7.5 m.

Type: Ship. MMSI: 316015251.

Date/timePositionNaut miles runAvg speedWind from/ knotsBaromVisibWave heightAir tempDewpointWater temp
2017-Aug-12 08:25N 51°11' W 057°13'714.9
2017-Aug-12 07:55N 51°06' W 057°23'614.4
2017-Aug-12 07:30N 51°02' W 057°30'714.5
2017-Aug-12 07:00N 50°57' W 057°38'9713.9
2017-Aug-11 23:59N 49°54' W 059°34'  
2017-Aug-08 20:38N 45°32' W 073°32'2 6.0
2017-Aug-08 20:20N 45°30' W 073°31'1 0.9
2017-Aug-08 19:42N 45°30' W 073°31'0 1.1
2017-Aug-08 19:30N 45°29' W 073°31'1 2.7
2017-Aug-08 18:58N 45°28' W 073°30'3 6.4
2017-Aug-08 18:30N 45°25' W 073°31'2 4.9
2017-Aug-08 18:00N 45°24' W 073°34'0 0.5
2017-Aug-08 17:30N 45°24' W 073°34'1 2.7
2017-Aug-08 17:00N 45°24' W 073°36'3 5.3
2017-Aug-08 16:30N 45°25' W 073°40'4 7.6
2017-Aug-08 16:00N 45°24' W 073°45'3 5.1
2017-Aug-08 15:30N 45°23' W 073°48'3 5.6
2017-Aug-08 15:00N 45°24' W 073°45'4 7.2
2017-Aug-08 14:30N 45°25' W 073°40'2 4.9
2017-Aug-08 14:00N 45°24' W 073°36'1 1.6
2017-Aug-08 13:28N 45°24' W 073°35'0 0.0
2017-Aug-08 12:52N 45°24' W 073°35'0 0.0
2017-Aug-08 12:28N 45°24' W 073°35'0 0.0
2017-Aug-08 11:58N 45°24' W 073°35'0 0.0
2017-Aug-08 11:28N 45°24' W 073°35'0 0.0
2017-Aug-08 10:58N 45°24' W 073°35'0 0.0
2017-Aug-08 10:28N 45°24' W 073°35'0 0.0
2017-Aug-08 09:58N 45°24' W 073°35'0 0.0
2017-Aug-08 09:28N 45°24' W 073°35'0 0.0
2017-Aug-08 08:52N 45°24' W 073°35'0 0.0
2017-Aug-08 08:22N 45°24' W 073°35'0 0.0
2017-Aug-08 07:46N 45°24' W 073°35'0 0.0
2017-Aug-08 07:28N 45°24' W 073°35'0 0.0
2017-Aug-08 06:52N 45°24' W 073°35'0 0.0
2017-Aug-08 06:16N 45°24' W 073°35'0 0.0
2017-Aug-08 05:58N 45°24' W 073°35'0 0.0
2017-Aug-08 05:28N 45°24' W 073°35'0 0.0
2017-Aug-08 04:58N 45°24' W 073°35'0 0.0
2017-Aug-08 04:28N 45°24' W 073°35'0 0.0
2017-Aug-08 03:58N 45°24' W 073°35'0 0.0
2017-Aug-08 03:28N 45°24' W 073°35'0 0.0
2017-Aug-08 03:01N 45°24' W 073°35'0 0.0
2017-Aug-08 02:29N 45°24' W 073°35'0 0.0
2017-Aug-08 01:57N 45°24' W 073°35'0 0.0
2017-Aug-08 01:31N 45°24' W 073°35'0 0.0
2017-Aug-08 00:59N 45°24' W 073°35'0 0.0
2017-Aug-08 00:29N 45°24' W 073°35'0 0.0
2017-Aug-07 23:59N 45°24' W 073°35'0 0.0
2017-Aug-07 23:29N 45°24' W 073°35'0 0.0
2017-Aug-07 22:59N 45°24' W 073°35'0 0.0
2017-Aug-07 22:20N 45°24' W 073°35'0 0.0
2017-Aug-07 21:56N 45°24' W 073°35'0 0.0
2017-Aug-07 21:26N 45°24' W 073°35'0 0.0
2017-Aug-07 20:55N 45°24' W 073°35'0 0.0
2017-Aug-07 20:25N 45°24' W 073°35'0 0.0
2017-Aug-07 19:55N 45°24' W 073°35'0 0.0
2017-Aug-07 19:25N 45°24' W 073°35'0 0.0
2017-Aug-07 18:55N 45°24' W 073°35'0 0.0
2017-Aug-07 18:25N 45°24' W 073°35'0 0.0
2017-Aug-07 17:56N 45°24' W 073°35'0 0.0
2017-Aug-07 17:26N 45°24' W 073°35'0 0.0
2017-Aug-07 16:56N 45°24' W 073°35'0 0.0
2017-Aug-07 16:26N 45°24' W 073°35'0 0.0
2017-Aug-07 15:56N 45°24' W 073°35'0 0.0
2017-Aug-07 15:22N 45°24' W 073°35'0 0.0
2017-Aug-07 14:58N 45°24' W 073°35'0 0.0
2017-Aug-07 14:28N 45°24' W 073°35'0 0.0
2017-Aug-07 13:52N 45°24' W 073°35'0 0.0
2017-Aug-07 13:28N 45°24' W 073°35'0 0.0
2017-Aug-07 12:46N 45°24' W 073°35'0 0.0
2017-Aug-07 12:22N 45°24' W 073°35'0 0.0
2017-Aug-07 11:58N 45°24' W 073°35'0 0.0
2017-Aug-07 11:28N 45°24' W 073°35'0 0.0
2017-Aug-07 10:58N 45°24' W 073°35'0 0.0
2017-Aug-07 10:28N 45°24' W 073°35'0 0.0
2017-Aug-07 09:58N 45°24' W 073°35'0 0.0
2017-Aug-07 09:28N 45°24' W 073°35'0 0.0
2017-Aug-07 08:57N 45°24' W 073°35'0 0.0
2017-Aug-07 08:27N 45°24' W 073°35'0 0.0
2017-Aug-07 07:42N 45°24' W 073°35'0 0.0
2017-Aug-07 07:24N 45°24' W 073°35'0 0.0
2017-Aug-07 06:38N 45°24' W 073°35'0 0.0
2017-Aug-07 06:26N 45°24' W 073°35'0 0.0
2017-Aug-07 05:56N 45°24' W 073°35'0 0.0
2017-Aug-07 05:26N 45°24' W 073°35'0 0.0
2017-Aug-07 04:56N 45°24' W 073°35'0 0.0
2017-Aug-07 04:26N 45°24' W 073°35'0 0.0
2017-Aug-07 03:56N 45°24' W 073°35'0 0.0
2017-Aug-07 03:26N 45°24' W 073°35'0 0.0
2017-Aug-07 02:56N 45°24' W 073°35'0 0.0
2017-Aug-07 02:26N 45°24' W 073°35'0 0.0
2017-Aug-07 01:58N 45°24' W 073°35'0 0.0
2017-Aug-07 01:25N 45°24' W 073°35'0 0.0
2017-Aug-07 00:55N 45°24' W 073°35'0 0.0
2017-Aug-07 00:13N 45°24' W 073°35'0 0.0
2017-Aug-06 23:56N 45°24' W 073°35'0 0.0
2017-Aug-06 23:29N 45°24' W 073°35'0 0.0
2017-Aug-06 22:47N 45°24' W 073°35'0 0.0
2017-Aug-06 22:29N 45°24' W 073°35'0 0.0
2017-Aug-06 21:56N 45°24' W 073°35'0 0.0
2017-Aug-06 21:26N 45°24' W 073°35'0 0.0
2017-Aug-06 20:56N 45°24' W 073°35'0 0.0
2017-Aug-06 20:26N 45°24' W 073°35'0 0.0
2017-Aug-06 19:56N 45°24' W 073°35'0 0.0
2017-Aug-06 19:26N 45°24' W 073°35'0 0.0
2017-Aug-06 18:56N 45°24' W 073°35'0 0.0
2017-Aug-06 18:25N 45°24' W 073°35'0 0.0
2017-Aug-06 17:55N 45°24' W 073°35'0 0.0
2017-Aug-06 17:25N 45°24' W 073°35'0 0.0
2017-Aug-06 16:55N 45°24' W 073°35'0 0.0
2017-Aug-06 16:13N 45°24' W 073°35'0 0.0
2017-Aug-06 15:55N 45°24' W 073°35'0 0.0
2017-Aug-06 15:14N 45°24' W 073°35'0 0.0
2017-Aug-06 14:44N 45°24' W 073°35'0 0.0
2017-Aug-06 14:26N 45°24' W 073°35'0 0.0
2017-Aug-06 13:28N 45°24' W 073°35'0 0.0
2017-Aug-06 12:58N 45°24' W 073°35'0 0.0
2017-Aug-06 12:28N 45°24' W 073°35'0 0.0
2017-Aug-06 11:46N 45°24' W 073°35'0 0.0
2017-Aug-06 11:28N 45°24' W 073°35'0 0.0
2017-Aug-06 10:58N 45°24' W 073°35'0 0.0
2017-Aug-06 10:28N 45°24' W 073°35'0 0.0
2017-Aug-06 09:58N 45°24' W 073°35'0 0.0
2017-Aug-06 09:28N 45°24' W 073°35'0 0.0
2017-Aug-06 08:58N 45°24' W 073°35'0 0.0
2017-Aug-06 08:28N 45°24' W 073°35'0 0.0
2017-Aug-06 07:58N 45°24' W 073°35'0 0.0
2017-Aug-06 07:26N 45°24' W 073°35'0 0.0
2017-Aug-06 06:56N 45°24' W 073°35'0 0.0
2017-Aug-06 06:26N 45°24' W 073°35'0 0.0
2017-Aug-06 05:56N 45°24' W 073°35'0 0.0
2017-Aug-06 05:26N 45°24' W 073°35'0 0.0
2017-Aug-06 04:56N 45°24' W 073°35'0 0.0
2017-Aug-06 04:26N 45°24' W 073°35'0 0.0
2017-Aug-06 03:56N 45°24' W 073°35'0 0.0
2017-Aug-06 03:26N 45°24' W 073°35'0 0.0
2017-Aug-06 02:56N 45°24' W 073°35'0 0.0
2017-Aug-06 02:26N 45°24' W 073°35'0 0.0
2017-Aug-06 01:56N 45°24' W 073°35'0 0.0
2017-Aug-06 01:26N 45°24' W 073°35'0 0.0
2017-Aug-06 00:56N 45°24' W 073°35'0 0.0
2017-Aug-06 00:26N 45°24' W 073°35'0 0.0
2017-Aug-05 23:32N 45°24' W 073°35'0 0.0
2017-Aug-05 23:26N 45°24' W 073°35'0 0.0
2017-Aug-05 22:56N 45°24' W 073°35'0 0.0
2017-Aug-05 22:20N 45°24' W 073°35'0 0.0
2017-Aug-05 21:55N 45°24' W 073°35'0 0.0
2017-Aug-05 21:25N 45°24' W 073°35'0 0.0
2017-Aug-05 20:55N 45°24' W 073°35'0 0.0
2017-Aug-05 20:25N 45°24' W 073°35'0 0.0
2017-Aug-05 19:55N 45°24' W 073°35'0 0.0
2017-Aug-05 19:26N 45°24' W 073°35'0 0.0
2017-Aug-05 18:59N 45°24' W 073°35'0 0.0
2017-Aug-05 18:29N 45°24' W 073°35'0 0.0
2017-Aug-05 17:59N 45°24' W 073°35'0 0.0
2017-Aug-05 17:29N 45°24' W 073°35'0 0.0
2017-Aug-05 16:59N 45°24' W 073°35'0 0.0
2017-Aug-05 16:23N 45°24' W 073°35'0 0.0
2017-Aug-05 15:59N 45°24' W 073°35'0 0.0
2017-Aug-05 15:14N 45°24' W 073°35'0 0.0
2017-Aug-05 14:38N 45°24' W 073°35'0 0.0
2017-Aug-05 14:26N 45°24' W 073°35'0 0.0
2017-Aug-05 13:56N 45°24' W 073°35'0 0.0
2017-Aug-05 13:08N 45°24' W 073°35'0 0.0
2017-Aug-05 12:56N 45°24' W 073°35'0 0.0
2017-Aug-05 12:26N 45°24' W 073°35'0 0.0
2017-Aug-05 11:56N 45°24' W 073°35'0 0.0
2017-Aug-05 11:26N 45°24' W 073°35'0 0.0
2017-Aug-05 10:56N 45°24' W 073°35'0 0.0
2017-Aug-05 10:26N 45°24' W 073°35'0 0.0
2017-Aug-05 09:56N 45°24' W 073°35'0 0.0
2017-Aug-05 09:26N 45°24' W 073°35'0 0.0
2017-Aug-05 08:56N 45°24' W 073°35'0 0.0
2017-Aug-05 08:26N 45°24' W 073°35'0 0.0
2017-Aug-05 07:56N 45°24' W 073°35'0 0.0
2017-Aug-05 07:26N 45°24' W 073°35'0 0.0
2017-Aug-05 06:57N 45°24' W 073°35'0 0.0
2017-Aug-05 06:27N 45°24' W 073°35'0 0.0
2017-Aug-05 05:57N 45°24' W 073°35'0 0.0
2017-Aug-05 05:27N 45°24' W 073°35'0 0.0
2017-Aug-05 04:57N 45°24' W 073°35'0 0.0
2017-Aug-05 04:29N 45°24' W 073°35'0 0.0
2017-Aug-05 03:59N 45°24' W 073°35'0 0.0
2017-Aug-05 03:29N 45°24' W 073°35'0 0.0
2017-Aug-05 02:59N 45°24' W 073°35'0 0.0
2017-Aug-05 02:23N 45°24' W 073°35'0 0.0
2017-Aug-05 01:59N 45°24' W 073°35'0 0.0
2017-Aug-05 01:29N 45°24' W 073°35'0 0.0
2017-Aug-05 00:53N 45°24' W 073°35'0 0.0
2017-Aug-05 00:29N 45°24' W 073°35'0 0.0
2017-Aug-04 23:59N 45°24' W 073°35'0 0.0
2017-Aug-04 23:29N 45°24' W 073°35'0 0.0
2017-Aug-04 22:59N 45°24' W 073°35'0 0.0
2017-Aug-04 22:29N 45°24' W 073°35'0 0.0
2017-Aug-04 21:59N 45°24' W 073°35'0 0.0
2017-Aug-04 21:29N 45°24' W 073°35'0 0.0
2017-Aug-04 20:59N 45°24' W 073°35'0 0.0
2017-Aug-04 20:29N 45°24' W 073°35'0 0.0
2017-Aug-04 19:47N 45°24' W 073°35'0 0.0
2017-Aug-04 19:23N 45°24' W 073°35'0 0.0
2017-Aug-04 18:59N 45°24' W 073°35'0 0.0
2017-Aug-04 18:29N 45°24' W 073°35'0 0.0
2017-Aug-04 17:56N 45°24' W 073°35'0 0.0
2017-Aug-04 17:26N 45°24' W 073°35'0 0.0
2017-Aug-04 16:50N 45°24' W 073°35'0 0.0
2017-Aug-04 16:20N 45°24' W 073°35'0 0.0
2017-Aug-04 15:49N 45°24' W 073°35'0 0.0
2017-Aug-04 15:25N 45°24' W 073°35'0 0.0
2017-Aug-04 14:43N 45°24' W 073°35'0 0.0
2017-Aug-04 13:55N 45°24' W 073°35'0 0.0
2017-Aug-04 13:25N 45°24' W 073°35'0 0.0
2017-Aug-04 12:43N 45°24' W 073°35'0 0.0
2017-Aug-04 12:25N 45°24' W 073°35'0 0.0
2017-Aug-04 11:55N 45°24' W 073°35'0 0.0
2017-Aug-04 11:25N 45°24' W 073°35'0 0.0
2017-Aug-04 10:49N 45°24' W 073°35'0 0.0
2017-Aug-04 10:19N 45°24' W 073°35'0 0.0
2017-Aug-04 09:55N 45°24' W 073°35'0 0.0
2017-Aug-04 09:25N 45°24' W 073°35'0 0.0
2017-Aug-04 08:55N 45°24' W 073°35'0 0.0
2017-Aug-04 08:25N 45°24' W 073°35'0 0.0
2017-Aug-04 07:49N 45°24' W 073°35'0 0.0
2017-Aug-04 07:25N 45°24' W 073°35'0 0.0
2017-Aug-04 06:55N 45°24' W 073°35'0 0.0
2017-Aug-04 06:19N 45°24' W 073°35'0 0.0
2017-Aug-04 05:49N 45°24' W 073°35'0 0.0
2017-Aug-04 05:28N 45°24' W 073°35'0 0.0
2017-Aug-04 04:58N 45°24' W 073°35'0 0.0
2017-Aug-04 04:28N 45°24' W 073°35'0 0.0
2017-Aug-04 03:52N 45°24' W 073°35'0 0.0
2017-Aug-04 03:28N 45°24' W 073°35'0 0.0
2017-Aug-04 02:58N 45°24' W 073°35'0 0.0
2017-Aug-04 02:28N 45°24' W 073°35'0 0.0
2017-Aug-04 01:58N 45°24' W 073°35'0 0.0
2017-Aug-04 01:28N 45°24' W 073°35'0 0.0
2017-Aug-04 00:52N 45°24' W 073°35'0 0.0
2017-Aug-04 00:28N 45°24' W 073°35'0 0.0
2017-Aug-03 23:58N 45°24' W 073°35'0 0.0
2017-Aug-03 23:28N 45°24' W 073°35'0 0.0
2017-Aug-03 22:58N 45°24' W 073°35'0 0.0
2017-Aug-03 22:28N 45°24' W 073°35'0 0.0
2017-Aug-03 21:58N 45°24' W 073°35'0 0.0
2017-Aug-03 21:28N 45°24' W 073°35'0 0.0
2017-Aug-03 20:58N 45°24' W 073°35'0 0.0
2017-Aug-03 20:28N 45°24' W 073°35'0 0.0
2017-Aug-03 19:58N 45°24' W 073°35'0 0.0
2017-Aug-03 19:28N 45°24' W 073°35'0 0.0
2017-Aug-03 18:58N 45°24' W 073°35'0 0.0
2017-Aug-03 18:28N 45°24' W 073°35'0 0.0
2017-Aug-03 17:58N 45°24' W 073°35'0 0.0
2017-Aug-03 17:28N 45°24' W 073°35'0 0.0
2017-Aug-03 16:52N 45°24' W 073°35'0 0.0
2017-Aug-03 16:28N 45°24' W 073°35'0 0.0
2017-Aug-03 15:58N 45°24' W 073°35'0 0.0
2017-Aug-03 15:28N 45°24' W 073°35'0 0.0
2017-Aug-03 14:52N 45°24' W 073°35'0 0.0
2017-Aug-03 13:52N 45°24' W 073°35'0 0.0
2017-Aug-03 13:28N 45°24' W 073°35'0 0.0
2017-Aug-03 12:58N 45°24' W 073°35'0 0.0
2017-Aug-03 12:28N 45°24' W 073°35'0 0.0
2017-Aug-03 11:52N 45°24' W 073°35'0 0.0
2017-Aug-03 11:16N 45°24' W 073°35'0 0.0
2017-Aug-03 10:58N 45°24' W 073°35'0 0.0
2017-Aug-03 10:28N 45°24' W 073°35'0 0.0
2017-Aug-03 09:58N 45°24' W 073°35'0 0.0
2017-Aug-03 09:28N 45°24' W 073°35'0 0.0
2017-Aug-03 08:58N 45°24' W 073°35'0 0.0
2017-Aug-03 08:28N 45°24' W 073°35'0 0.0
2017-Aug-03 07:58N 45°24' W 073°35'0 0.0
2017-Aug-03 07:28N 45°24' W 073°35'0 0.0
2017-Aug-03 06:58N 45°24' W 073°35'0 0.0
2017-Aug-03 06:28N 45°24' W 073°35'0 0.0
2017-Aug-03 05:58N 45°24' W 073°35'0 0.0
2017-Aug-03 05:28N 45°24' W 073°35'0 0.0
2017-Aug-03 04:58N 45°24' W 073°35'0 0.0
2017-Aug-03 04:28N 45°24' W 073°35'0 0.0
2017-Aug-03 03:58N 45°24' W 073°35'0 0.0
2017-Aug-03 03:28N 45°24' W 073°35'0 0.0
2017-Aug-03 02:58N 45°24' W 073°35'0 0.0
2017-Aug-03 02:28N 45°24' W 073°35'0 0.0
2017-Aug-03 01:55N 45°24' W 073°35'0 0.0
2017-Aug-03 01:25N 45°24' W 073°35'0 0.0
2017-Aug-03 00:55N 45°24' W 073°35'0 0.0
2017-Aug-03 00:25N 45°24' W 073°35'0 0.0
2017-Aug-02 23:49N 45°24' W 073°35'0 0.0
2017-Aug-02 23:25N 45°24' W 073°35'0 0.0
2017-Aug-02 22:55N 45°24' W 073°35'0 0.0
2017-Aug-02 22:25N 45°24' W 073°35'0 0.0
2017-Aug-02 21:55N 45°24' W 073°35'0 0.0
2017-Aug-02 21:25N 45°24' W 073°35'0 0.0
2017-Aug-02 20:49N 45°24' W 073°35'0 0.0
2017-Aug-02 20:25N 45°24' W 073°35'0 0.0
2017-Aug-02 19:58N 45°24' W 073°35'0 0.0
2017-Aug-02 19:28N 45°24' W 073°35'0 0.0
2017-Aug-02 18:56N 45°24' W 073°35'0 0.0
2017-Aug-02 18:27N 45°24' W 073°35'0 0.0
2017-Aug-02 17:57N 45°24' W 073°35'0 0.0
2017-Aug-02 17:21N 45°24' W 073°35'0 0.0
2017-Aug-02 16:57N 45°24' W 073°35'0 0.0
2017-Aug-02 16:21N 45°24' W 073°35'0 0.0
2017-Aug-02 15:57N 45°24' W 073°35'0 0.0
2017-Aug-02 15:27N 45°24' W 073°35'0 0.0
2017-Aug-02 14:57N 45°24' W 073°35'0 0.0
2017-Aug-02 13:27N 45°24' W 073°35'0 0.0
2017-Aug-02 12:57N 45°24' W 073°35'0 0.0
2017-Aug-02 12:27N 45°24' W 073°35'0 0.0
2017-Aug-02 11:57N 45°24' W 073°35'0 0.0
2017-Aug-02 11:27N 45°24' W 073°35'0 0.0
2017-Aug-02 10:57N 45°24' W 073°35'0 0.0
2017-Aug-02 10:27N 45°24' W 073°35'0 0.0
2017-Aug-02 09:57N 45°24' W 073°35'0 0.0
2017-Aug-02 09:28N 45°24' W 073°35'0 0.0
2017-Aug-02 08:58N 45°24' W 073°35'0 0.0
2017-Aug-02 08:28N 45°24' W 073°35'  
Track history (hours):
 
Tides and Currents Weather Stations Pressure Air Temp Water Temp Dewpoint Dewpoint Depression Visibility Wind Speed Wind Dir Waves Ship Positions

Sedna Desgagnes

Last reported at 2017-Aug-12 08:25 UTC. Time now 2017-Aug-19 07:30 UTC.
Position N 51°11' W 057°13'.

Length 139 m; draft 7.5 m.

Type: Ship. MMSI: 316015251.

Date/timePositionNaut miles runAvg speedWind from/ knotsBaromVisibWave heightAir tempDewpointWater temp
2017-Aug-12 08:25N 51°11' W 057°13'714.9
2017-Aug-12 07:55N 51°06' W 057°23'614.4
2017-Aug-12 07:30N 51°02' W 057°30'714.5
2017-Aug-12 07:00N 50°57' W 057°38'9713.9
2017-Aug-11 23:59N 49°54' W 059°34'  
2017-Aug-08 20:38N 45°32' W 073°32'2 6.0
2017-Aug-08 20:20N 45°30' W 073°31'1 0.9
2017-Aug-08 19:42N 45°30' W 073°31'0 1.1
2017-Aug-08 19:30N 45°29' W 073°31'1 2.7
2017-Aug-08 18:58N 45°28' W 073°30'3 6.4
2017-Aug-08 18:30N 45°25' W 073°31'2 4.9
2017-Aug-08 18:00N 45°24' W 073°34'0 0.5
2017-Aug-08 17:30N 45°24' W 073°34'1 2.7
2017-Aug-08 17:00N 45°24' W 073°36'3 5.3
2017-Aug-08 16:30N 45°25' W 073°40'4 7.6
2017-Aug-08 16:00N 45°24' W 073°45'3 5.1
2017-Aug-08 15:30N 45°23' W 073°48'3 5.6
2017-Aug-08 15:00N 45°24' W 073°45'4 7.2
2017-Aug-08 14:30N 45°25' W 073°40'2 4.9
2017-Aug-08 14:00N 45°24' W 073°36'1 1.6
2017-Aug-08 13:28N 45°24' W 073°35'0 0.0
2017-Aug-08 12:52N 45°24' W 073°35'0 0.0
2017-Aug-08 12:28N 45°24' W 073°35'0 0.0
2017-Aug-08 11:58N 45°24' W 073°35'0 0.0
2017-Aug-08 11:28N 45°24' W 073°35'0 0.0
2017-Aug-08 10:58N 45°24' W 073°35'0 0.0
2017-Aug-08 10:28N 45°24' W 073°35'0 0.0
2017-Aug-08 09:58N 45°24' W 073°35'0 0.0
2017-Aug-08 09:28N 45°24' W 073°35'0 0.0
2017-Aug-08 08:52N 45°24' W 073°35'0 0.0
2017-Aug-08 08:22N 45°24' W 073°35'0 0.0
2017-Aug-08 07:46N 45°24' W 073°35'0 0.0
2017-Aug-08 07:28N 45°24' W 073°35'0 0.0
2017-Aug-08 06:52N 45°24' W 073°35'0 0.0
2017-Aug-08 06:16N 45°24' W 073°35'0 0.0
2017-Aug-08 05:58N 45°24' W 073°35'0 0.0
2017-Aug-08 05:28N 45°24' W 073°35'0 0.0
2017-Aug-08 04:58N 45°24' W 073°35'0 0.0
2017-Aug-08 04:28N 45°24' W 073°35'0 0.0
2017-Aug-08 03:58N 45°24' W 073°35'0 0.0
2017-Aug-08 03:28N 45°24' W 073°35'0 0.0
2017-Aug-08 03:01N 45°24' W 073°35'0 0.0
2017-Aug-08 02:29N 45°24' W 073°35'0 0.0
2017-Aug-08 01:57N 45°24' W 073°35'0 0.0
2017-Aug-08 01:31N 45°24' W 073°35'0 0.0
2017-Aug-08 00:59N 45°24' W 073°35'0 0.0
2017-Aug-08 00:29N 45°24' W 073°35'0 0.0
2017-Aug-07 23:59N 45°24' W 073°35'0 0.0
2017-Aug-07 23:29N 45°24' W 073°35'0 0.0
2017-Aug-07 22:59N 45°24' W 073°35'0 0.0
2017-Aug-07 22:20N 45°24' W 073°35'0 0.0
2017-Aug-07 21:56N 45°24' W 073°35'0 0.0
2017-Aug-07 21:26N 45°24' W 073°35'0 0.0
2017-Aug-07 20:55N 45°24' W 073°35'0 0.0
2017-Aug-07 20:25N 45°24' W 073°35'0 0.0
2017-Aug-07 19:55N 45°24' W 073°35'0 0.0
2017-Aug-07 19:25N 45°24' W 073°35'0 0.0
2017-Aug-07 18:55N 45°24' W 073°35'0 0.0
2017-Aug-07 18:25N 45°24' W 073°35'0 0.0
2017-Aug-07 17:56N 45°24' W 073°35'0 0.0
2017-Aug-07 17:26N 45°24' W 073°35'0 0.0
2017-Aug-07 16:56N 45°24' W 073°35'0 0.0
2017-Aug-07 16:26N 45°24' W 073°35'0 0.0
2017-Aug-07 15:56N 45°24' W 073°35'0 0.0
2017-Aug-07 15:22N 45°24' W 073°35'0 0.0
2017-Aug-07 14:58N 45°24' W 073°35'0 0.0
2017-Aug-07 14:28N 45°24' W 073°35'0 0.0
2017-Aug-07 13:52N 45°24' W 073°35'0 0.0
2017-Aug-07 13:28N 45°24' W 073°35'0 0.0
2017-Aug-07 12:46N 45°24' W 073°35'0 0.0
2017-Aug-07 12:22N 45°24' W 073°35'0 0.0
2017-Aug-07 11:58N 45°24' W 073°35'0 0.0
2017-Aug-07 11:28N 45°24' W 073°35'0 0.0
2017-Aug-07 10:58N 45°24' W 073°35'0 0.0
2017-Aug-07 10:28N 45°24' W 073°35'0 0.0
2017-Aug-07 09:58N 45°24' W 073°35'0 0.0
2017-Aug-07 09:28N 45°24' W 073°35'0 0.0
2017-Aug-07 08:57N 45°24' W 073°35'0 0.0
2017-Aug-07 08:27N 45°24' W 073°35'0 0.0
2017-Aug-07 07:42N 45°24' W 073°35'0 0.0
2017-Aug-07 07:24N 45°24' W 073°35'0 0.0
2017-Aug-07 06:38N 45°24' W 073°35'0 0.0
2017-Aug-07 06:26N 45°24' W 073°35'0 0.0
2017-Aug-07 05:56N 45°24' W 073°35'0 0.0
2017-Aug-07 05:26N 45°24' W 073°35'0 0.0
2017-Aug-07 04:56N 45°24' W 073°35'0 0.0
2017-Aug-07 04:26N 45°24' W 073°35'0 0.0
2017-Aug-07 03:56N 45°24' W 073°35'0 0.0
2017-Aug-07 03:26N 45°24' W 073°35'0 0.0
2017-Aug-07 02:56N 45°24' W 073°35'0 0.0
2017-Aug-07 02:26N 45°24' W 073°35'0 0.0
2017-Aug-07 01:58N 45°24' W 073°35'0 0.0
2017-Aug-07 01:25N 45°24' W 073°35'0 0.0
2017-Aug-07 00:55N 45°24' W 073°35'0 0.0
2017-Aug-07 00:13N 45°24' W 073°35'0 0.0
2017-Aug-06 23:56N 45°24' W 073°35'0 0.0
2017-Aug-06 23:29N 45°24' W 073°35'0 0.0
2017-Aug-06 22:47N 45°24' W 073°35'0 0.0
2017-Aug-06 22:29N 45°24' W 073°35'0 0.0
2017-Aug-06 21:56N 45°24' W 073°35'0 0.0
2017-Aug-06 21:26N 45°24' W 073°35'0 0.0
2017-Aug-06 20:56N 45°24' W 073°35'0 0.0
2017-Aug-06 20:26N 45°24' W 073°35'0 0.0
2017-Aug-06 19:56N 45°24' W 073°35'0 0.0
2017-Aug-06 19:26N 45°24' W 073°35'0 0.0
2017-Aug-06 18:56N 45°24' W 073°35'0 0.0
2017-Aug-06 18:25N 45°24' W 073°35'0 0.0
2017-Aug-06 17:55N 45°24' W 073°35'0 0.0
2017-Aug-06 17:25N 45°24' W 073°35'0 0.0
2017-Aug-06 16:55N 45°24' W 073°35'0 0.0
2017-Aug-06 16:13N 45°24' W 073°35'0 0.0
2017-Aug-06 15:55N 45°24' W 073°35'0 0.0
2017-Aug-06 15:14N 45°24' W 073°35'0 0.0
2017-Aug-06 14:44N 45°24' W 073°35'0 0.0
2017-Aug-06 14:26N 45°24' W 073°35'0 0.0
2017-Aug-06 13:28N 45°24' W 073°35'0 0.0
2017-Aug-06 12:58N 45°24' W 073°35'0 0.0
2017-Aug-06 12:28N 45°24' W 073°35'0 0.0
2017-Aug-06 11:46N 45°24' W 073°35'0 0.0
2017-Aug-06 11:28N 45°24' W 073°35'0 0.0
2017-Aug-06 10:58N 45°24' W 073°35'0 0.0
2017-Aug-06 10:28N 45°24' W 073°35'0 0.0
2017-Aug-06 09:58N 45°24' W 073°35'0 0.0
2017-Aug-06 09:28N 45°24' W 073°35'0 0.0
2017-Aug-06 08:58N 45°24' W 073°35'0 0.0
2017-Aug-06 08:28N 45°24' W 073°35'0 0.0
2017-Aug-06 07:58N 45°24' W 073°35'0 0.0
2017-Aug-06 07:26N 45°24' W 073°35'0 0.0
2017-Aug-06 06:56N 45°24' W 073°35'0 0.0
2017-Aug-06 06:26N 45°24' W 073°35'0 0.0
2017-Aug-06 05:56N 45°24' W 073°35'0 0.0
2017-Aug-06 05:26N 45°24' W 073°35'0 0.0
2017-Aug-06 04:56N 45°24' W 073°35'0 0.0
2017-Aug-06 04:26N 45°24' W 073°35'0 0.0
2017-Aug-06 03:56N 45°24' W 073°35'0 0.0
2017-Aug-06 03:26N 45°24' W 073°35'0 0.0
2017-Aug-06 02:56N 45°24' W 073°35'0 0.0
2017-Aug-06 02:26N 45°24' W 073°35'0 0.0
2017-Aug-06 01:56N 45°24' W 073°35'0 0.0
2017-Aug-06 01:26N 45°24' W 073°35'0 0.0
2017-Aug-06 00:56N 45°24' W 073°35'0 0.0
2017-Aug-06 00:26N 45°24' W 073°35'0 0.0
2017-Aug-05 23:32N 45°24' W 073°35'0 0.0
2017-Aug-05 23:26N 45°24' W 073°35'0 0.0
2017-Aug-05 22:56N 45°24' W 073°35'0 0.0
2017-Aug-05 22:20N 45°24' W 073°35'0 0.0
2017-Aug-05 21:55N 45°24' W 073°35'0 0.0
2017-Aug-05 21:25N 45°24' W 073°35'0 0.0
2017-Aug-05 20:55N 45°24' W 073°35'0 0.0
2017-Aug-05 20:25N 45°24' W 073°35'0 0.0
2017-Aug-05 19:55N 45°24' W 073°35'0 0.0
2017-Aug-05 19:26N 45°24' W 073°35'0 0.0
2017-Aug-05 18:59N 45°24' W 073°35'0 0.0
2017-Aug-05 18:29N 45°24' W 073°35'0 0.0
2017-Aug-05 17:59N 45°24' W 073°35'0 0.0
2017-Aug-05 17:29N 45°24' W 073°35'0 0.0
2017-Aug-05 16:59N 45°24' W 073°35'0 0.0
2017-Aug-05 16:23N 45°24' W 073°35'0 0.0
2017-Aug-05 15:59N 45°24' W 073°35'0 0.0
2017-Aug-05 15:14N 45°24' W 073°35'0 0.0
2017-Aug-05 14:38N 45°24' W 073°35'0 0.0
2017-Aug-05 14:26N 45°24' W 073°35'0 0.0
2017-Aug-05 13:56N 45°24' W 073°35'0 0.0
2017-Aug-05 13:08N 45°24' W 073°35'0 0.0
2017-Aug-05 12:56N 45°24' W 073°35'0 0.0
2017-Aug-05 12:26N 45°24' W 073°35'0 0.0
2017-Aug-05 11:56N 45°24' W 073°35'0 0.0
2017-Aug-05 11:26N 45°24' W 073°35'0 0.0
2017-Aug-05 10:56N 45°24' W 073°35'0 0.0
2017-Aug-05 10:26N 45°24' W 073°35'0 0.0
2017-Aug-05 09:56N 45°24' W 073°35'0 0.0
2017-Aug-05 09:26N 45°24' W 073°35'0 0.0
2017-Aug-05 08:56N 45°24' W 073°35'0 0.0
2017-Aug-05 08:26N 45°24' W 073°35'0 0.0
2017-Aug-05 07:56N 45°24' W 073°35'0 0.0
2017-Aug-05 07:26N 45°24' W 073°35'0 0.0
2017-Aug-05 06:57N 45°24' W 073°35'0 0.0
2017-Aug-05 06:27N 45°24' W 073°35'0 0.0
2017-Aug-05 05:57N 45°24' W 073°35'0 0.0
2017-Aug-05 05:27N 45°24' W 073°35'0 0.0
2017-Aug-05 04:57N 45°24' W 073°35'0 0.0
2017-Aug-05 04:29N 45°24' W 073°35'0 0.0
2017-Aug-05 03:59N 45°24' W 073°35'0 0.0
2017-Aug-05 03:29N 45°24' W 073°35'0 0.0
2017-Aug-05 02:59N 45°24' W 073°35'0 0.0
2017-Aug-05 02:23N 45°24' W 073°35'0 0.0
2017-Aug-05 01:59N 45°24' W 073°35'0 0.0
2017-Aug-05 01:29N 45°24' W 073°35'0 0.0
2017-Aug-05 00:53N 45°24' W 073°35'0 0.0
2017-Aug-05 00:29N 45°24' W 073°35'0 0.0
2017-Aug-04 23:59N 45°24' W 073°35'0 0.0
2017-Aug-04 23:29N 45°24' W 073°35'0 0.0
2017-Aug-04 22:59N 45°24' W 073°35'0 0.0
2017-Aug-04 22:29N 45°24' W 073°35'0 0.0
2017-Aug-04 21:59N 45°24' W 073°35'0 0.0
2017-Aug-04 21:29N 45°24' W 073°35'0 0.0
2017-Aug-04 20:59N 45°24' W 073°35'0 0.0
2017-Aug-04 20:29N 45°24' W 073°35'0 0.0
2017-Aug-04 19:47N 45°24' W 073°35'0 0.0
2017-Aug-04 19:23N 45°24' W 073°35'0 0.0
2017-Aug-04 18:59N 45°24' W 073°35'0 0.0
2017-Aug-04 18:29N 45°24' W 073°35'0 0.0
2017-Aug-04 17:56N 45°24' W 073°35'0 0.0
2017-Aug-04 17:26N 45°24' W 073°35'0 0.0
2017-Aug-04 16:50N 45°24' W 073°35'0 0.0
2017-Aug-04 16:20N 45°24' W 073°35'0 0.0
2017-Aug-04 15:49N 45°24' W 073°35'0 0.0
2017-Aug-04 15:25N 45°24' W 073°35'0 0.0
2017-Aug-04 14:43N 45°24' W 073°35'0 0.0
2017-Aug-04 13:55N 45°24' W 073°35'0 0.0
2017-Aug-04 13:25N 45°24' W 073°35'0 0.0
2017-Aug-04 12:43N 45°24' W 073°35'0 0.0
2017-Aug-04 12:25N 45°24' W 073°35'0 0.0
2017-Aug-04 11:55N 45°24' W 073°35'0 0.0
2017-Aug-04 11:25N 45°24' W 073°35'0 0.0
2017-Aug-04 10:49N 45°24' W 073°35'0 0.0
2017-Aug-04 10:19N 45°24' W 073°35'0 0.0
2017-Aug-04 09:55N 45°24' W 073°35'0 0.0
2017-Aug-04 09:25N 45°24' W 073°35'0 0.0
2017-Aug-04 08:55N 45°24' W 073°35'0 0.0
2017-Aug-04 08:25N 45°24' W 073°35'0 0.0
2017-Aug-04 07:49N 45°24' W 073°35'0 0.0
2017-Aug-04 07:25N 45°24' W 073°35'0 0.0
2017-Aug-04 06:55N 45°24' W 073°35'0 0.0
2017-Aug-04 06:19N 45°24' W 073°35'0 0.0
2017-Aug-04 05:49N 45°24' W 073°35'0 0.0
2017-Aug-04 05:28N 45°24' W 073°35'0 0.0
2017-Aug-04 04:58N 45°24' W 073°35'0 0.0
2017-Aug-04 04:28N 45°24' W 073°35'0 0.0
2017-Aug-04 03:52N 45°24' W 073°35'0 0.0
2017-Aug-04 03:28N 45°24' W 073°35'0 0.0
2017-Aug-04 02:58N 45°24' W 073°35'0 0.0
2017-Aug-04 02:28N 45°24' W 073°35'0 0.0
2017-Aug-04 01:58N 45°24' W 073°35'0 0.0
2017-Aug-04 01:28N 45°24' W 073°35'0 0.0
2017-Aug-04 00:52N 45°24' W 073°35'0 0.0
2017-Aug-04 00:28N 45°24' W 073°35'0 0.0
2017-Aug-03 23:58N 45°24' W 073°35'0 0.0
2017-Aug-03 23:28N 45°24' W 073°35'0 0.0
2017-Aug-03 22:58N 45°24' W 073°35'0 0.0
2017-Aug-03 22:28N 45°24' W 073°35'0 0.0
2017-Aug-03 21:58N 45°24' W 073°35'0 0.0
2017-Aug-03 21:28N 45°24' W 073°35'0 0.0
2017-Aug-03 20:58N 45°24' W 073°35'0 0.0
2017-Aug-03 20:28N 45°24' W 073°35'0 0.0
2017-Aug-03 19:58N 45°24' W 073°35'0 0.0
2017-Aug-03 19:28N 45°24' W 073°35'0 0.0
2017-Aug-03 18:58N 45°24' W 073°35'0 0.0
2017-Aug-03 18:28N 45°24' W 073°35'0 0.0
2017-Aug-03 17:58N 45°24' W 073°35'0 0.0
2017-Aug-03 17:28N 45°24' W 073°35'0 0.0
2017-Aug-03 16:52N 45°24' W 073°35'0 0.0
2017-Aug-03 16:28N 45°24' W 073°35'0 0.0
2017-Aug-03 15:58N 45°24' W 073°35'0 0.0
2017-Aug-03 15:28N 45°24' W 073°35'0 0.0
2017-Aug-03 14:52N 45°24' W 073°35'0 0.0
2017-Aug-03 13:52N 45°24' W 073°35'0 0.0
2017-Aug-03 13:28N 45°24' W 073°35'0 0.0
2017-Aug-03 12:58N 45°24' W 073°35'0 0.0
2017-Aug-03 12:28N 45°24' W 073°35'0 0.0
2017-Aug-03 11:52N 45°24' W 073°35'0 0.0
2017-Aug-03 11:16N 45°24' W 073°35'0 0.0
2017-Aug-03 10:58N 45°24' W 073°35'0 0.0
2017-Aug-03 10:28N 45°24' W 073°35'0 0.0
2017-Aug-03 09:58N 45°24' W 073°35'0 0.0
2017-Aug-03 09:28N 45°24' W 073°35'0 0.0
2017-Aug-03 08:58N 45°24' W 073°35'0 0.0
2017-Aug-03 08:28N 45°24' W 073°35'0 0.0
2017-Aug-03 07:58N 45°24' W 073°35'0 0.0
2017-Aug-03 07:28N 45°24' W 073°35'0 0.0
2017-Aug-03 06:58N 45°24' W 073°35'0 0.0
2017-Aug-03 06:28N 45°24' W 073°35'0 0.0
2017-Aug-03 05:58N 45°24' W 073°35'0 0.0
2017-Aug-03 05:28N 45°24' W 073°35'0 0.0
2017-Aug-03 04:58N 45°24' W 073°35'0 0.0
2017-Aug-03 04:28N 45°24' W 073°35'0 0.0
2017-Aug-03 03:58N 45°24' W 073°35'0 0.0
2017-Aug-03 03:28N 45°24' W 073°35'0 0.0
2017-Aug-03 02:58N 45°24' W 073°35'0 0.0
2017-Aug-03 02:28N 45°24' W 073°35'0 0.0
2017-Aug-03 01:55N 45°24' W 073°35'0 0.0
2017-Aug-03 01:25N 45°24' W 073°35'0 0.0
2017-Aug-03 00:55N 45°24' W 073°35'0 0.0
2017-Aug-03 00:25N 45°24' W 073°35'0 0.0
2017-Aug-02 23:49N 45°24' W 073°35'0 0.0
2017-Aug-02 23:25N 45°24' W 073°35'0 0.0
2017-Aug-02 22:55N 45°24' W 073°35'0 0.0
2017-Aug-02 22:25N 45°24' W 073°35'0 0.0
2017-Aug-02 21:55N 45°24' W 073°35'0 0.0
2017-Aug-02 21:25N 45°24' W 073°35'0 0.0
2017-Aug-02 20:49N 45°24' W 073°35'0 0.0
2017-Aug-02 20:25N 45°24' W 073°35'0 0.0
2017-Aug-02 19:58N 45°24' W 073°35'0 0.0
2017-Aug-02 19:28N 45°24' W 073°35'0 0.0
2017-Aug-02 18:56N 45°24' W 073°35'0 0.0
2017-Aug-02 18:27N 45°24' W 073°35'0 0.0
2017-Aug-02 17:57N 45°24' W 073°35'0 0.0
2017-Aug-02 17:21N 45°24' W 073°35'0 0.0
2017-Aug-02 16:57N 45°24' W 073°35'0 0.0
2017-Aug-02 16:21N 45°24' W 073°35'0 0.0
2017-Aug-02 15:57N 45°24' W 073°35'0 0.0
2017-Aug-02 15:27N 45°24' W 073°35'0 0.0
2017-Aug-02 14:57N 45°24' W 073°35'0 0.0
2017-Aug-02 13:27N 45°24' W 073°35'0 0.0
2017-Aug-02 12:57N 45°24' W 073°35'0 0.0
2017-Aug-02 12:27N 45°24' W 073°35'0 0.0
2017-Aug-02 11:57N 45°24' W 073°35'0 0.0
2017-Aug-02 11:27N 45°24' W 073°35'0 0.0
2017-Aug-02 10:57N 45°24' W 073°35'0 0.0
2017-Aug-02 10:27N 45°24' W 073°35'0 0.0
2017-Aug-02 09:57N 45°24' W 073°35'0 0.0
2017-Aug-02 09:28N 45°24' W 073°35'0 0.0
2017-Aug-02 08:58N 45°24' W 073°35'0 0.0
2017-Aug-02 08:28N 45°24' W 073°35'  

Dump ship's entire track history